Time;durP1;ratioP1;P1;durP2;ratioP2;P2;SDS_P1;SDS_P2;PMS_P1;PMS_P2;Temp;Humidity;BMP_temperature;BMP_pressure;BME280_temperature;BME280_humidity;BME280_pressure;Samples;Min_cycle;Max_cycle;Signal;HPM_P1;HPM_P2
2021/01/24 00:00:12;;;;;;;27.25;24.25;;;4.80;80.70;6.50;97966.00;;;;4903166;29;21443;-83
2021/01/24 00:02:42;;;;;;;27.02;24.23;;;4.80;80.10;6.50;97976.00;;;;4903631;29;20438;-84
2021/01/24 00:05:10;;;;;;;26.90;24.10;;;4.80;80.30;6.50;97969.00;;;;4903432;29;20488;-84
2021/01/24 00:07:38;;;;;;;27.47;24.57;;;4.80;80.20;6.50;97981.00;;;;4910117;29;20990;-83
2021/01/24 00:10:08;;;;;;;27.23;24.33;;;4.80;80.00;6.50;97962.00;;;;4910105;29;20469;-84
2021/01/24 00:12:35;;;;;;;26.63;23.80;;;4.80;81.00;6.50;97976.00;;;;4913099;29;20409;-82
2021/01/24 00:15:03;;;;;;;28.10;23.67;;;4.80;80.90;6.60;97959.00;;;;4924946;28;20472;-83
2021/01/24 00:17:31;;;;;;;26.95;24.05;;;4.90;80.80;217.30;159534.00;;;;4919271;29;20457;-84
2021/01/24 00:20:00;;;;;;;26.20;23.57;;;4.90;80.90;6.60;67717.00;;;;4930959;28;20451;-82
2021/01/24 00:22:28;;;;;;;28.60;25.50;;;4.90;79.90;6.60;97959.00;;;;4930759;28;20438;-85
2021/01/24 00:24:57;;;;;;;27.03;24.13;;;4.90;80.40;217.30;159488.00;;;;4926211;29;20496;-85
2021/01/24 00:27:24;;;;;;;26.25;23.45;;;4.90;80.70;6.50;67696.00;;;;4919345;29;20422;-84
2021/01/24 00:29:52;;;;;;;27.27;24.38;;;4.80;80.80;52.70;159443.00;;;;4912417;29;20478;-84
2021/01/24 00:32:19;;;;;;;27.33;24.42;;;4.80;81.50;6.50;67693.00;;;;4907876;29;20423;-83
2021/01/24 00:34:47;;;;;;;25.15;22.60;;;4.80;81.20;6.40;97947.00;;;;4929004;29;20502;-84
2021/01/24 00:37:15;;;;;;;25.17;22.58;;;4.80;81.00;6.40;97948.00;;;;4915842;29;20450;-84
2021/01/24 00:39:42;;;;;;;24.75;22.15;;;4.70;81.00;217.30;159383.00;;;;4933027;28;20473;-85
2021/01/24 00:42:11;;;;;;;25.85;23.15;;;4.70;81.30;6.30;97948.00;;;;4942140;28;20492;-86
2021/01/24 00:44:39;;;;;;;24.40;21.95;;;4.70;81.80;6.40;97958.00;;;;4938542;29;20480;-88
2021/01/24 00:47:07;;;;;;;23.08;20.60;;;4.80;81.90;6.20;97952.00;;;;4940925;29;20440;-88
2021/01/24 00:49:35;;;;;;;23.75;21.25;;;4.70;81.20;6.20;67634.00;;;;4924264;29;20427;-86
2021/01/24 00:52:03;;;;;;;23.55;21.15;;;4.70;81.90;6.10;97928.00;;;;4923037;28;20510;-86
2021/01/24 00:54:31;;;;;;;23.75;21.27;;;4.60;82.10;6.20;97943.00;;;;4902830;29;20985;-85
2021/01/24 00:56:59;;;;;;;21.33;19.15;;;4.60;82.60;217.30;159310.00;;;;4906505;29;20511;-83
2021/01/24 00:59:27;;;;;;;20.27;18.17;;;4.60;82.70;217.30;159252.00;;;;4923083;29;20458;-84
2021/01/24 01:01:54;;;;;;;20.38;18.38;;;4.60;82.50;6.10;67595.00;;;;4919890;29;20511;-85
2021/01/24 01:04:22;;;;;;;19.42;17.42;;;4.60;82.60;6.00;97930.00;;;;4913706;29;20436;-85
2021/01/24 01:06:50;;;;;;;18.92;17.02;;;4.60;82.50;6.00;97919.00;;;;4913151;29;20470;-82
2021/01/24 01:09:17;;;;;;;17.75;15.93;;;4.50;82.90;6.00;97929.00;;;;4911707;29;20541;-82
2021/01/24 01:11:45;;;;;;;16.52;14.82;;;4.50;83.00;5.80;97939.00;;;;4925038;29;20489;-83
2021/01/24 01:14:12;;;;;;;15.32;13.82;;;4.50;82.70;5.80;97938.00;;;;4923145;29;20523;-82
2021/01/24 01:16:40;;;;;;;15.15;13.65;;;4.50;82.90;217.30;159155.00;;;;4923547;29;20943;-85
2021/01/24 01:19:08;;;;;;;13.27;12.00;;;4.40;82.90;52.70;159123.00;;;;4911105;29;20441;-85
2021/01/24 01:21:35;;;;;;;12.25;11.05;;;4.40;82.90;217.30;159098.00;;;;4902347;29;20525;-82
2021/01/24 01:24:04;;;;;;;12.00;10.80;;;4.50;82.70;5.70;97935.00;;;;4923426;29;20481;-83
2021/01/24 01:26:31;;;;;;;9.70;8.80;;;4.40;83.30;5.50;97932.00;;;;4908450;29;20958;-84
2021/01/24 01:28:59;;;;;;;9.80;8.80;;;4.30;82.80;5.40;97937.00;;;;4910578;29;20470;-82
2021/01/24 01:31:26;;;;;;;10.50;9.40;;;4.20;83.40;217.30;158941.00;;;;4907704;29;20470;-84
2021/01/24 01:33:55;;;;;;;8.32;7.45;;;4.20;84.10;5.30;97926.00;;;;4907188;29;20473;-86
2021/01/24 01:36:22;;;;;;;8.50;7.70;;;4.20;85.10;5.20;67404.00;;;;4908063;29;20469;-82
2021/01/24 01:38:50;;;;;;;7.10;6.40;;;4.10;84.50;5.20;97931.00;;;;4917206;29;20439;-82
2021/01/24 01:41:17;;;;;;;6.82;5.60;;;4.10;84.90;5.20;97938.00;;;;4908660;29;20983;-83
2021/01/24 01:43:45;;;;;;;4.90;4.40;;;4.10;85.10;5.10;97940.00;;;;4909615;29;20494;-86
2021/01/24 01:46:20;;;;;;;4.60;4.20;;;4.00;84.90;5.10;97935.00;;;;4926365;29;20437;-83
2021/01/24 01:48:49;;;;;;;6.10;4.40;;;4.00;84.90;5.00;97931.00;;;;4906878;29;20568;-83
2021/01/24 01:51:17;;;;;;;4.40;4.00;;;4.00;85.10;5.00;97962.00;;;;4920752;29;20437;-82
2021/01/24 01:53:46;;;;;;;3.70;3.30;;;3.90;85.20;4.80;97930.00;;;;4905548;29;20443;-81
2021/01/24 01:56:14;;;;;;;3.80;3.17;;;3.80;84.30;4.70;97947.00;;;;4903443;29;20437;-84
2021/01/24 01:58:42;;;;;;;3.20;2.90;;;3.70;84.70;4.70;67281.00;;;;4919790;29;20549;-83
2021/01/24 02:01:20;;;;;;;3.00;2.70;;;3.60;84.30;4.50;97928.00;;;;4903394;29;20446;-84
2021/01/24 02:03:55;;;;;;;3.20;2.70;;;3.50;84.30;4.40;67239.00;;;;4913735;29;20445;-84
2021/01/24 02:06:32;;;;;;;2.90;2.70;;;3.50;84.30;4.50;97925.00;;;;4913955;29;20469;-85
2021/01/24 02:09:08;;;;;;;2.95;2.75;;;3.40;84.50;217.30;158598.00;;;;4937034;29;20479;-85
2021/01/24 02:11:46;;;;;;;1.70;1.40;;;3.40;85.00;4.30;97918.00;;;;4930193;29;20487;-84
2021/01/24 02:14:29;;;;;;;1.50;1.27;;;3.30;84.40;4.20;97939.00;;;;4934477;29;21074;-84
2021/01/24 02:16:59;;;;;;;1.30;1.20;;;3.20;84.40;4.20;97939.00;;;;4940382;28;20425;-84
2021/01/24 02:19:42;;;;;;;1.70;1.30;;;3.10;84.70;4.00;97942.00;;;;4932146;29;20450;-84
2021/01/24 02:22:12;;;;;;;1.50;1.10;;;2.90;84.30;3.90;97932.00;;;;4904774;29;20513;-84
2021/01/24 02:24:48;;;;;;;1.50;1.30;;;2.90;84.30;3.80;97955.00;;;;4906863;29;20476;-85
2021/01/24 02:27:22;;;;;;;1.70;1.10;;;2.80;84.70;3.70;67074.00;;;;4913944;29;20464;-84
2021/01/24 02:30:12;;;;;;;1.92;1.20;;;2.70;84.50;3.50;97941.00;;;;4904895;29;20509;-84
2021/01/24 02:32:40;;;;;;;1.30;1.05;;;2.50;84.20;3.30;97932.00;;;;4907241;29;20858;-83
2021/01/24 02:35:09;;;;;;;1.50;1.20;;;2.30;84.40;3.20;66961.00;;;;4908139;29;20470;-82
2021/01/24 02:37:38;;;;;;;1.80;1.10;;;2.30;85.00;3.10;66953.00;;;;4910943;29;20472;-82
2021/01/24 02:40:09;;;;;;;1.30;1.10;;;2.20;85.10;3.10;97934.00;;;;4908544;29;21059;-82
2021/01/24 02:42:37;;;;;;;1.50;1.20;;;2.10;85.30;3.10;97931.00;;;;4912040;29;20431;-83
2021/01/24 02:45:08;;;;;;;1.70;1.20;;;2.10;85.70;3.20;97943.00;;;;4939092;28;20437;-83
2021/01/24 02:47:38;;;;;;;1.50;1.40;;;2.10;86.00;3.20;97942.00;;;;4941977;28;20461;-83
2021/01/24 02:50:08;;;;;;;2.00;1.50;;;2.10;85.90;52.70;158009.00;;;;4916647;29;20439;-83
2021/01/24 02:52:36;;;;;;;2.17;1.80;;;2.10;85.90;3.10;97950.00;;;;4916880;29;20604;-82
2021/01/24 02:55:07;;;;;;;1.83;1.60;;;2.00;85.80;3.00;97975.00;;;;4921575;29;20836;-81
2021/01/24 02:57:37;;;;;;;2.00;1.80;;;2.00;85.80;3.00;97981.00;;;;4902995;29;20473;-81
2021/01/24 03:00:08;;;;;;;2.38;1.80;;;2.00;86.30;3.00;97972.00;;;;4907310;29;20783;-80
2021/01/24 03:02:36;;;;;;;2.60;2.00;;;1.90;86.30;3.00;97981.00;;;;4903118;29;20443;-80
2021/01/24 03:05:05;;;;;;;2.40;2.20;;;1.90;86.40;2.80;97976.00;;;;4903593;29;20438;-79
2021/01/24 03:07:33;;;;;;;2.50;2.30;;;1.90;86.60;2.70;97950.00;;;;4904305;29;20439;-79
2021/01/24 03:10:01;;;;;;;2.60;2.38;;;1.90;86.60;2.60;97940.00;;;;4909784;29;21055;-81
2021/01/24 03:12:35;;;;;;;3.30;3.00;;;1.80;86.80;2.60;97999.00;;;;4918944;29;20499;-81
2021/01/24 03:15:05;;;;;;;3.60;3.20;;;1.70;87.00;2.60;98026.00;;;;4902844;29;20919;-81
2021/01/24 03:17:37;;;;;;;3.55;3.25;;;1.70;87.20;2.50;98022.00;;;;4919447;29;20453;-83
2021/01/24 03:20:07;;;;;;;3.63;3.33;;;1.70;87.30;2.30;98016.00;;;;4909794;29;20926;-81
2021/01/24 03:22:36;;;;;;;4.40;4.00;;;1.60;87.10;2.20;98016.00;;;;4917055;29;20435;-81
2021/01/24 03:25:06;;;;;;;4.55;4.00;;;1.60;87.10;2.10;98032.00;;;;4919622;29;20504;-81
2021/01/24 03:27:36;;;;;;;4.90;4.27;;;1.50;87.30;2.10;98041.00;;;;4902383;29;20472;-81
2021/01/24 03:30:05;;;;;;;5.10;4.60;;;1.40;87.40;2.10;98035.00;;;;4917880;29;20687;-81
2021/01/24 03:32:34;;;;;;;5.10;4.60;;;1.40;87.60;1.90;98031.00;;;;4904016;29;20505;-81
2021/01/24 03:35:02;;;;;;;5.85;5.20;;;1.40;87.60;2.10;98025.00;;;;4904151;29;20536;-80
2021/01/24 03:37:30;;;;;;;5.40;4.82;;;1.40;87.90;217.30;157573.00;;;;4918098;29;20536;-81
2021/01/24 03:39:57;;;;;;;6.20;5.60;;;1.40;88.20;2.30;98047.00;;;;4909853;29;20500;-81
2021/01/24 03:42:26;;;;;;;6.20;5.60;;;1.50;88.60;2.40;98048.00;;;;4902972;29;20485;-81
2021/01/24 03:44:54;;;;;;;6.30;5.70;;;1.60;88.90;2.50;98045.00;;;;4916322;29;21053;-81
2021/01/24 03:47:21;;;;;;;6.90;6.20;;;1.70;89.00;52.70;157777.00;;;;4902790;29;20470;-80
2021/01/24 03:49:50;;;;;;;6.53;5.90;;;1.70;89.00;2.70;98062.00;;;;4908910;29;20439;-80
2021/01/24 03:52:17;;;;;;;6.80;6.10;;;1.80;89.10;52.70;157834.00;;;;4899922;29;20498;-81
2021/01/24 03:54:44;;;;;;;7.20;6.50;;;1.80;89.10;2.80;98051.00;;;;4904338;29;20554;-81
2021/01/24 03:57:12;;;;;;;7.10;6.50;;;1.90;89.20;2.90;98086.00;;;;4900662;29;20451;-81
2021/01/24 03:59:39;;;;;;;7.50;6.80;;;2.00;89.30;217.30;157931.00;;;;4901220;29;20446;-81
2021/01/24 04:02:06;;;;;;;7.50;6.80;;;2.00;89.30;3.00;98075.00;;;;4899655;29;20588;-82
2021/01/24 04:04:34;;;;;;;7.07;6.45;;;2.00;89.30;3.00;98068.00;;;;4916673;29;21253;-81
2021/01/24 04:07:02;;;;;;;7.20;6.50;;;2.10;89.40;3.10;98081.00;;;;4916655;29;20429;-81
2021/01/24 04:09:30;;;;;;;6.85;6.25;;;2.10;89.30;3.20;98063.00;;;;4918355;29;20433;-81
2021/01/24 04:11:57;;;;;;;6.25;5.63;;;2.10;89.30;3.20;98094.00;;;;4916118;29;20963;-81
2021/01/24 04:14:24;;;;;;;6.20;5.60;;;2.20;89.20;3.20;98073.00;;;;4901598;29;20445;-81
2021/01/24 04:16:52;;;;;;;5.10;4.60;;;2.20;89.00;3.20;66964.00;;;;4901062;29;20840;-82
2021/01/24 04:19:19;;;;;;;4.63;4.22;;;2.30;89.10;3.30;98101.00;;;;4900637;29;20511;-81
2021/01/24 04:21:47;;;;;;;4.35;3.70;;;2.30;89.00;3.30;98096.00;;;;4901456;29;20576;-81
2021/01/24 04:24:15;;;;;;;4.40;4.00;;;2.30;88.80;3.30;66961.00;;;;4899916;29;20516;-81
2021/01/24 04:26:42;;;;;;;3.95;3.65;;;2.30;88.60;3.20;98094.00;;;;4914410;29;20798;-82
2021/01/24 04:29:10;;;;;;;3.45;3.15;;;2.30;88.40;3.20;98107.00;;;;4914238;29;20464;-81
2021/01/24 04:31:37;;;;;;;3.10;2.80;;;2.30;88.30;3.30;98105.00;;;;4915159;29;20460;-81
2021/01/24 04:34:05;;;;;;;2.60;2.40;;;2.30;88.30;217.30;158086.00;;;;4901300;29;20509;-81
2021/01/24 04:36:32;;;;;;;2.60;2.40;;;2.30;88.10;3.30;98108.00;;;;4906039;29;21057;-81
2021/01/24 04:39:01;;;;;;;2.20;2.00;;;2.30;87.70;3.30;98106.00;;;;4907178;29;20437;-81
2021/01/24 04:41:30;;;;;;;1.80;1.60;;;2.40;87.40;3.20;98125.00;;;;4904640;29;20460;-80
2021/01/24 04:43:57;;;;;;;1.83;1.42;;;2.30;86.70;3.30;98128.00;;;;4911808;29;20536;-81
2021/01/24 04:46:25;;;;;;;1.70;1.60;;;2.30;86.80;3.40;98134.00;;;;4921386;29;20438;-81
2021/01/24 04:48:52;;;;;;;1.88;1.67;;;2.30;86.90;3.40;98131.00;;;;4922286;29;20432;-80
2021/01/24 04:51:20;;;;;;;2.80;1.60;;;2.40;86.70;3.30;98153.00;;;;4921004;29;20987;-81
2021/01/24 04:53:48;;;;;;;1.50;1.40;;;2.30;86.60;3.20;98162.00;;;;4905404;29;20524;-81
2021/01/24 04:56:16;;;;;;;2.70;1.50;;;2.30;86.30;3.20;98146.00;;;;4912586;29;20458;-82
2021/01/24 04:58:44;;;;;;;2.08;1.88;;;2.30;86.50;3.10;98153.00;;;;4922443;29;20432;-80
2021/01/24 05:01:14;;;;;;;2.00;1.80;;;2.40;86.70;3.10;98151.00;;;;4901733;29;20446;-82
2021/01/24 05:03:43;;;;;;;2.13;1.92;;;2.20;86.50;3.10;98161.00;;;;4912742;29;20965;-82
2021/01/24 05:06:11;;;;;;;2.63;2.42;;;2.20;86.80;3.20;98147.00;;;;4907613;29;20449;-80
2021/01/24 05:08:44;;;;;;;3.10;2.30;;;2.20;87.20;3.20;66955.00;;;;4923700;29;20534;-81
2021/01/24 05:11:12;;;;;;;2.38;2.10;;;2.20;87.30;3.20;98174.00;;;;4916393;29;20429;-80
2021/01/24 05:13:40;;;;;;;2.40;2.20;;;2.20;87.20;3.10;98153.00;;;;4913536;29;20472;-82
2021/01/24 05:16:08;;;;;;;2.50;2.30;;;2.20;87.20;217.30;157967.00;;;;4921376;29;20444;-81
2021/01/24 05:18:36;;;;;;;3.00;2.50;;;2.10;87.30;3.00;98159.00;;;;4921149;29;20510;-81
2021/01/24 05:21:05;;;;;;;2.40;2.20;;;2.10;87.60;3.00;98163.00;;;;4901774;29;20455;-81
2021/01/24 05:23:37;;;;;;;3.33;2.90;;;2.10;87.60;3.00;66915.00;;;;4905267;29;20466;-81
2021/01/24 05:26:09;;;;;;;3.00;2.70;;;2.10;87.70;3.00;98172.00;;;;4904997;29;20527;-81
2021/01/24 05:28:47;;;;;;;2.63;2.42;;;2.10;87.70;3.10;98187.00;;;;4903651;29;20477;-81
2021/01/24 05:31:21;;;;;;;3.28;2.97;;;2.10;88.00;217.30;157945.00;;;;4903010;29;20449;-81
2021/01/24 05:33:50;;;;;;;3.50;3.20;;;2.00;87.90;3.00;98184.00;;;;4919513;29;20436;-81
2021/01/24 05:36:17;;;;;;;3.50;3.20;;;2.10;88.10;3.10;98179.00;;;;4904012;29;21020;-82
2021/01/24 05:38:45;;;;;;;3.67;3.25;;;2.10;88.40;3.00;98189.00;;;;4905577;29;21061;-82
2021/01/24 05:41:12;;;;;;;3.70;3.40;;;2.10;88.00;3.10;98186.00;;;;4905901;29;20433;-83
2021/01/24 05:43:42;;;;;;;4.03;3.63;;;2.10;88.20;3.10;98182.00;;;;4918304;29;20456;-81
2021/01/24 05:46:12;;;;;;;4.25;3.80;;;2.10;88.00;3.00;98200.00;;;;4905999;29;20536;-81
2021/01/24 05:48:50;;;;;;;4.43;4.03;;;2.20;87.90;3.00;98183.00;;;;4907277;29;20942;-82
2021/01/24 05:51:17;;;;;;;4.80;4.05;;;2.10;87.60;3.00;98186.00;;;;4920545;29;20524;-81
2021/01/24 05:53:50;;;;;;;4.78;4.38;;;2.10;87.50;3.00;98208.00;;;;4919094;29;20502;-81
2021/01/24 05:56:20;;;;;;;4.72;4.22;;;2.10;87.90;2.90;98213.00;;;;4905073;29;20430;-81
2021/01/24 05:58:54;;;;;;;5.50;5.00;;;2.10;88.00;3.00;98194.00;;;;4922746;29;20507;-81
2021/01/24 06:01:23;;;;;;;6.63;5.73;;;2.10;88.10;3.00;66915.00;;;;4927576;29;20566;-81
2021/01/24 06:03:55;;;;;;;6.43;5.82;;;2.10;88.40;3.00;98211.00;;;;4927445;29;20430;-82
2021/01/24 06:06:22;;;;;;;6.82;5.80;;;2.10;88.30;217.30;157906.00;;;;4928208;29;20480;-83
2021/01/24 06:08:50;;;;;;;6.93;6.22;;;2.10;88.30;217.30;157951.00;;;;4925018;29;20479;-81
2021/01/24 06:11:19;;;;;;;7.63;6.55;;;2.10;88.50;2.90;98223.00;;;;4914989;29;20445;-81
2021/01/24 06:13:48;;;;;;;7.43;6.72;;;2.00;88.40;2.90;98219.00;;;;4910209;29;20458;-81
2021/01/24 06:16:22;;;;;;;8.10;7.30;;;2.00;88.40;3.00;98228.00;;;;4922334;29;20431;-81
2021/01/24 06:18:56;;;;;;;7.57;6.78;;;2.00;88.70;2.90;98241.00;;;;4919326;29;20438;-81
2021/01/24 06:21:32;;;;;;;7.80;7.00;;;2.00;88.40;2.80;98221.00;;;;4920070;29;20881;-80
2021/01/24 06:24:11;;;;;;;9.02;8.13;;;2.00;88.70;2.80;66869.00;;;;4915181;29;20438;-81
2021/01/24 06:26:42;;;;;;;9.10;8.20;;;2.00;88.70;2.80;98238.00;;;;4911689;29;20437;-82
2021/01/24 06:29:11;;;;;;;8.70;7.80;;;1.90;88.60;2.70;98243.00;;;;4923684;29;20469;-81
2021/01/24 06:31:46;;;;;;;9.05;7.97;;;1.90;88.90;2.70;98249.00;;;;4937754;29;20438;-82
2021/01/24 06:34:15;;;;;;;9.55;8.38;;;1.80;89.10;217.30;157823.00;;;;4921197;29;20443;-82
2021/01/24 06:37:08;;;;;;;10.05;9.05;;;2.00;89.30;2.70;98222.00;;;;4923982;28;20479;-82
2021/01/24 06:39:49;;;;;;;12.10;9.27;;;1.90;89.20;2.70;98236.00;;;;4916415;29;21290;-81
2021/01/24 06:42:35;;;;;;;10.60;9.02;;;1.90;89.20;2.80;98238.00;;;;4902315;29;20447;-81
2021/01/24 06:45:05;;;;;;;10.75;9.65;;;1.90;89.20;2.80;98254.00;;;;4919182;29;20447;-82
2021/01/24 06:47:41;;;;;;;10.00;9.00;;;1.90;89.10;2.80;98273.00;;;;4928265;28;20529;-81
2021/01/24 06:50:47;;;;;;;10.93;9.70;;;1.90;89.20;2.70;98271.00;;;;4919255;29;20452;-80
2021/01/24 06:53:21;;;;;;;10.00;9.00;;;1.90;89.00;2.70;98280.00;;;;4890700;29;20458;-80
2021/01/24 06:55:58;;;;;;;9.85;8.85;;;1.90;88.90;2.70;98279.00;;;;4883029;29;20466;-81
2021/01/24 06:58:30;;;;;;;11.00;9.68;;;1.90;89.20;2.80;98281.00;;;;4896231;29;20480;-80
2021/01/24 07:01:28;;;;;;;11.90;9.38;;;1.90;89.20;2.70;98304.00;;;;4902537;29;20843;-80
2021/01/24 07:04:41;;;;;;;10.40;9.30;;;1.90;89.20;2.80;98282.00;;;;4904306;29;20433;-81
2021/01/24 07:07:39;;;;;;;11.00;9.60;;;2.00;88.80;-80.10;214819.00;;;;4902312;29;21059;-80
2021/01/24 07:10:46;;;;;;;11.00;9.40;;;2.00;88.70;2.90;98315.00;;;;4920532;29;20441;-81
2021/01/24 07:13:35;;;;;;;11.70;10.18;;;2.00;88.70;2.90;98318.00;;;;4923851;29;20445;-82
2021/01/24 07:16:06;;;;;;;11.98;10.00;;;2.00;88.50;2.80;98307.00;;;;4929006;29;20469;-81
2021/01/24 07:18:42;;;;;;;11.55;10.27;;;2.00;88.50;2.90;98336.00;;;;4916255;29;20466;-81
2021/01/24 07:21:11;;;;;;;11.02;9.82;;;2.00;88.70;2.90;98330.00;;;;4923100;29;20528;-81
2021/01/24 07:23:40;;;;;;;11.10;9.90;;;2.00;88.60;2.90;98351.00;;;;4933331;29;20446;-81
2021/01/24 07:26:10;;;;;;;11.68;9.55;;;2.00;88.30;2.80;98343.00;;;;4909133;29;20468;-81
2021/01/24 07:28:38;;;;;;;12.25;10.75;;;2.00;88.50;2.80;66863.00;;;;4912095;29;20459;-81
2021/01/24 07:31:06;;;;;;;13.25;10.70;;;2.00;88.30;2.80;66863.00;;;;4911053;29;20477;-80
2021/01/24 07:33:34;;;;;;;11.90;10.60;;;2.00;88.60;2.80;98350.00;;;;4918182;29;20790;-82
2021/01/24 07:36:04;;;;;;;11.50;10.20;;;2.00;88.70;2.80;66856.00;;;;4914295;29;20458;-81
2021/01/24 07:38:32;;;;;;;11.88;10.45;;;1.90;88.10;2.70;98356.00;;;;4927192;29;20475;-80
2021/01/24 07:41:01;;;;;;;12.55;10.85;;;1.90;88.40;2.70;98350.00;;;;4910997;29;20447;-81
2021/01/24 07:43:29;;;;;;;13.00;11.30;;;1.90;88.50;217.30;157809.00;;;;4926715;28;20426;-81
2021/01/24 07:45:57;;;;;;;13.35;10.88;;;1.90;88.50;217.30;157705.00;;;;4924871;28;20473;-80
2021/01/24 07:48:25;;;;;;;12.13;10.57;;;2.00;88.60;2.60;98355.00;;;;4918263;29;21111;-82
2021/01/24 07:50:52;;;;;;;15.30;12.30;;;1.90;88.80;2.60;98350.00;;;;4902590;29;20442;-80
2021/01/24 07:53:20;;;;;;;12.10;10.73;;;1.80;88.70;2.60;98358.00;;;;4906223;29;20450;-81
2021/01/24 07:55:48;;;;;;;15.05;11.80;;;1.80;88.70;2.60;98354.00;;;;4919285;29;20473;-81
2021/01/24 07:58:16;;;;;;;12.95;10.18;;;1.80;89.00;2.60;98369.00;;;;4923600;29;20439;-80
2021/01/24 08:00:47;;;;;;;11.50;10.07;;;1.70;88.90;2.60;98376.00;;;;4908512;29;20441;-80
2021/01/24 08:03:20;;;;;;;11.70;9.65;;;1.80;89.10;52.70;157751.00;;;;4906955;29;20465;-81
2021/01/24 08:05:48;;;;;;;11.50;9.98;;;1.80;89.10;2.50;98373.00;;;;4918241;29;20470;-81
2021/01/24 08:08:15;;;;;;;11.73;9.80;;;1.70;89.00;2.50;98380.00;;;;4912662;29;20430;-82
2021/01/24 08:10:44;;;;;;;12.10;10.10;;;1.80;89.10;2.50;66803.00;;;;4928834;29;20506;-81
2021/01/24 08:13:12;;;;;;;11.25;9.63;;;1.70;89.20;2.40;66784.00;;;;4922805;29;20460;-82
2021/01/24 08:15:40;;;;;;;12.70;10.20;;;1.60;88.90;52.70;157660.00;;;;4908527;29;20447;-80
2021/01/24 08:18:08;;;;;;;12.50;9.80;;;1.60;89.10;2.30;98399.00;;;;4923460;29;20521;-81
2021/01/24 08:20:35;;;;;;;13.30;9.60;;;1.60;89.20;2.40;98400.00;;;;4910823;29;20530;-82
2021/01/24 08:23:03;;;;;;;11.13;9.30;;;1.60;89.30;52.70;157699.00;;;;4913964;29;20545;-81
2021/01/24 08:25:31;;;;;;;10.38;9.20;;;1.60;89.50;217.30;157725.00;;;;4907783;29;20433;-82
2021/01/24 08:27:59;;;;;;;10.75;8.55;;;1.70;89.60;217.30;157741.00;;;;4910038;29;20433;-81
2021/01/24 08:30:27;;;;;;;10.45;8.93;;;1.70;89.60;2.40;98411.00;;;;4920074;29;20438;-80
2021/01/24 08:32:57;;;;;;;10.10;8.48;;;1.70;89.50;2.50;98403.00;;;;4921648;29;21305;-81
2021/01/24 08:35:33;;;;;;;9.57;8.43;;;1.70;89.50;2.50;98415.00;;;;4907402;29;20457;-82
2021/01/24 08:38:01;;;;;;;10.95;8.90;;;1.70;89.50;2.50;66787.00;;;;4911238;29;20437;-82
2021/01/24 08:40:33;;;;;;;9.95;8.95;;;1.70;89.50;2.50;98418.00;;;;4918334;29;20429;-82
2021/01/24 08:43:02;;;;;;;10.57;9.23;;;1.70;89.60;2.50;98442.00;;;;4905773;29;20442;-80
2021/01/24 08:45:30;;;;;;;11.00;9.00;;;1.70;89.60;2.30;98439.00;;;;4921269;29;20447;-81
2021/01/24 08:48:01;;;;;;;9.93;8.85;;;1.70;89.30;2.30;98430.00;;;;4921473;29;20441;-82
2021/01/24 08:50:32;;;;;;;9.80;8.20;;;1.60;89.30;2.30;66762.00;;;;4909544;29;20426;-81
2021/01/24 08:53:01;;;;;;;9.90;8.25;;;1.60;89.60;2.30;66759.00;;;;4909356;29;20445;-82
2021/01/24 08:55:29;;;;;;;9.98;8.70;;;1.60;89.80;2.30;98454.00;;;;4912741;29;20495;-81
2021/01/24 08:57:57;;;;;;;9.40;8.40;;;1.60;89.70;2.30;98458.00;;;;4910786;29;20432;-81
2021/01/24 09:00:25;;;;;;;10.05;8.90;;;1.60;89.80;2.20;98471.00;;;;4922708;29;20477;-80
2021/01/24 09:02:52;;;;;;;9.90;8.30;;;1.60;89.60;2.30;98463.00;;;;4922899;29;20437;-83
2021/01/24 09:05:32;;;;;;;9.50;8.50;;;1.60;89.70;2.50;98478.00;;;;4923881;29;20435;-83
2021/01/24 09:08:00;;;;;;;9.95;8.38;;;1.60;90.00;2.40;98486.00;;;;4905697;29;20432;-80
2021/01/24 09:10:31;;;;;;;9.90;8.10;;;1.70;89.90;2.40;98496.00;;;;4922240;29;20501;-81
2021/01/24 09:13:01;;;;;;;10.45;8.43;;;1.70;90.00;2.40;98496.00;;;;4919282;29;20481;-81
2021/01/24 09:15:30;;;;;;;9.05;8.15;;;1.70;89.90;2.50;98489.00;;;;4914607;29;21215;-81
2021/01/24 09:18:00;;;;;;;9.63;8.15;;;1.70;90.00;2.50;98508.00;;;;4920620;29;20484;-82
2021/01/24 09:20:30;;;;;;;10.15;7.97;;;1.70;89.90;2.60;98499.00;;;;4921561;29;20475;-83
2021/01/24 09:22:58;;;;;;;11.07;8.40;;;1.70;89.90;52.70;157777.00;;;;4905663;29;20442;-80
2021/01/24 09:25:26;;;;;;;9.20;8.02;;;1.80;90.00;2.60;98508.00;;;;4905296;29;20952;-81
2021/01/24 09:27:53;;;;;;;8.82;7.78;;;1.80;90.00;2.70;98510.00;;;;4907536;29;20464;-79
2021/01/24 09:30:22;;;;;;;8.43;7.60;;;1.80;90.00;2.80;98515.00;;;;4906255;29;20981;-81
2021/01/24 09:32:49;;;;;;;8.60;7.70;;;1.80;89.80;2.70;98529.00;;;;4903912;29;20442;-80
2021/01/24 09:35:17;;;;;;;9.27;7.28;;;1.80;89.40;2.80;98523.00;;;;4917551;29;20439;-78
2021/01/24 09:37:45;;;;;;;11.23;8.45;;;1.80;89.60;2.80;98514.00;;;;4919797;28;20462;-80
2021/01/24 09:40:13;;;;;;;8.25;7.10;;;1.90;89.90;2.90;98543.00;;;;4919313;29;20453;-81
2021/01/24 09:42:41;;;;;;;8.10;7.03;;;1.90;89.60;3.00;98538.00;;;;4915302;29;20429;-82
2021/01/24 09:45:10;;;;;;;8.33;6.57;;;2.00;89.70;3.00;98543.00;;;;4914016;29;20464;-79
2021/01/24 09:47:38;;;;;;;6.70;6.00;;;2.00;89.80;3.00;98553.00;;;;4920112;29;20527;-80
2021/01/24 09:50:08;;;;;;;6.93;6.00;;;2.00;89.40;3.10;98558.00;;;;4906533;29;20549;-81
2021/01/24 09:52:35;;;;;;;6.25;5.35;;;2.10;89.40;3.20;98546.00;;;;4919576;29;20433;-80
2021/01/24 09:55:06;;;;;;;5.30;4.80;;;2.10;89.40;3.30;98567.00;;;;4907168;29;20521;-81
2021/01/24 09:57:33;;;;;;;5.40;4.90;;;2.10;89.40;217.30;158080.00;;;;4921886;29;20480;-81
2021/01/24 10:00:01;;;;;;;6.05;5.05;;;2.10;89.40;3.30;66987.00;;;;4924071;29;20449;-80
2021/01/24 10:02:47;;;;;;;5.05;4.55;;;2.20;89.50;3.30;98566.00;;;;4918926;29;20487;-79
2021/01/24 10:05:15;;;;;;;6.30;4.65;;;2.30;89.20;3.40;98586.00;;;;4937170;29;20485;-79
2021/01/24 10:07:42;;;;;;;5.47;4.95;;;2.20;89.20;3.40;66995.00;;;;4922626;29;20444;-81
2021/01/24 10:10:13;;;;;;;5.30;4.80;;;2.30;89.20;3.40;98588.00;;;;4934069;29;20440;-79
2021/01/24 10:12:41;;;;;;;7.10;5.50;;;2.30;89.00;3.50;98334.00;;;;4914388;29;20489;-80
2021/01/24 10:15:13;;;;;;;5.68;4.90;;;2.20;89.20;3.50;98608.00;;;;4926987;29;20442;-79
2021/01/24 10:17:41;;;;;;;5.40;4.90;;;2.30;89.20;3.50;67031.00;;;;4924246;29;20461;-79
2021/01/24 10:20:09;;;;;;;6.05;5.45;;;2.30;89.10;3.40;98616.00;;;;4924086;29;20970;-79
2021/01/24 10:22:38;;;;;;;5.27;4.77;;;2.30;89.00;3.30;98633.00;;;;4941080;28;20472;-78
2021/01/24 10:25:07;;;;;;;5.60;5.00;;;2.30;88.40;3.40;98637.00;;;;4920362;29;20452;-80
2021/01/24 10:27:36;;;;;;;5.40;4.90;;;2.30;88.70;52.70;158076.00;;;;4926126;29;20463;-80
2021/01/24 10:30:07;;;;;;;6.18;5.45;;;2.30;88.40;3.50;98633.00;;;;4924447;29;20450;-80
2021/01/24 10:32:39;;;;;;;4.82;4.05;;;2.40;88.50;3.50;98638.00;;;;4908333;29;20449;-80
2021/01/24 10:35:08;;;;;;;5.13;4.10;;;2.40;88.40;3.50;67031.00;;;;4925336;29;20936;-79
2021/01/24 10:37:36;;;;;;;4.30;3.90;;;2.50;88.20;217.30;158170.00;;;;4925142;29;20438;-80
2021/01/24 10:40:06;;;;;;;6.10;4.03;;;2.50;88.40;3.60;67054.00;;;;4911420;29;20494;-80
2021/01/24 10:42:33;;;;;;;6.15;5.18;;;2.50;88.30;3.70;98651.00;;;;4922869;29;21118;-79
2021/01/24 10:45:02;;;;;;;6.35;4.85;;;2.60;88.40;217.30;158298.00;;;;4912535;29;20558;-80
2021/01/24 10:47:31;;;;;;;4.70;4.28;;;2.60;88.40;3.80;98655.00;;;;4904004;29;20443;-79
2021/01/24 10:49:59;;;;;;;5.97;4.38;;;2.60;87.80;217.30;158282.00;;;;4906270;29;20438;-81
2021/01/24 10:52:26;;;;;;;9.05;4.47;;;2.70;87.10;3.80;98672.00;;;;4914068;29;21611;-78
2021/01/24 10:54:54;;;;;;;4.68;3.80;;;2.70;86.80;3.80;98646.00;;;;4905589;29;20480;-80
2021/01/24 10:57:21;;;;;;;3.70;3.40;;;2.70;86.50;3.80;98680.00;;;;4908971;29;20422;-79
2021/01/24 10:59:49;;;;;;;3.10;2.80;;;2.80;86.10;3.80;98679.00;;;;4910294;29;20505;-78
2021/01/24 11:02:18;;;;;;;3.40;3.10;;;2.80;85.80;217.30;158360.00;;;;4908697;29;20440;-80
2021/01/24 11:04:46;;;;;;;3.70;3.05;;;2.80;86.30;4.10;67161.00;;;;4923629;29;20438;-79
2021/01/24 11:07:14;;;;;;;3.60;3.30;;;2.90;86.70;4.10;98691.00;;;;4909339;29;20539;-80
2021/01/24 11:09:41;;;;;;;3.13;2.85;;;2.90;85.80;217.30;158370.00;;;;4905781;29;20433;-79
2021/01/24 11:12:09;;;;;;;3.10;2.80;;;2.90;84.10;217.30;158366.00;;;;4904652;29;20437;-79
2021/01/24 11:14:37;;;;;;;4.13;2.80;;;2.90;84.70;4.00;98710.00;;;;4904436;29;21032;-82